sensor_id;sensor_type;location;lat;lon;timestamp;P1;durP1;ratioP1;P2;durP2;ratioP2
10120;SDS011;5100;45.176;5.714;2023-04-12T00:02:13;3.67;;;2.87;;
10120;SDS011;5100;45.176;5.714;2023-04-12T00:04:39;3.50;;;2.62;;
10120;SDS011;5100;45.176;5.714;2023-04-12T00:07:05;2.90;;;2.53;;
10120;SDS011;5100;45.176;5.714;2023-04-12T00:09:34;3.08;;;2.50;;
10120;SDS011;5100;45.176;5.714;2023-04-12T00:12:01;5.72;;;2.85;;
10120;SDS011;5100;45.176;5.714;2023-04-12T00:14:27;3.15;;;2.75;;
10120;SDS011;5100;45.176;5.714;2023-04-12T00:16:53;3.65;;;2.37;;
10120;SDS011;5100;45.176;5.714;2023-04-12T00:19:20;3.20;;;2.55;;
10120;SDS011;5100;45.176;5.714;2023-04-12T00:21:46;4.30;;;2.80;;
10120;SDS011;5100;45.176;5.714;2023-04-12T00:24:12;3.87;;;3.00;;
10120;SDS011;5100;45.176;5.714;2023-04-12T00:26:38;4.55;;;2.55;;
10120;SDS011;5100;45.176;5.714;2023-04-12T00:29:05;3.80;;;2.70;;
10120;SDS011;5100;45.176;5.714;2023-04-12T00:31:31;2.72;;;2.53;;
10120;SDS011;5100;45.176;5.714;2023-04-12T00:34:00;4.00;;;2.95;;
10120;SDS011;5100;45.176;5.714;2023-04-12T00:36:25;3.83;;;2.42;;
10120;SDS011;5100;45.176;5.714;2023-04-12T00:38:52;4.03;;;2.47;;
10120;SDS011;5100;45.176;5.714;2023-04-12T00:41:18;4.60;;;3.15;;
10120;SDS011;5100;45.176;5.714;2023-04-12T00:43:44;3.92;;;2.78;;
10120;SDS011;5100;45.176;5.714;2023-04-12T00:46:11;4.35;;;2.83;;
10120;SDS011;5100;45.176;5.714;2023-04-12T00:48:37;4.22;;;2.50;;
10120;SDS011;5100;45.176;5.714;2023-04-12T00:51:05;7.50;;;2.80;;
10120;SDS011;5100;45.176;5.714;2023-04-12T00:53:31;4.80;;;2.60;;
10120;SDS011;5100;45.176;5.714;2023-04-12T00:55:58;2.87;;;2.42;;
10120;SDS011;5100;45.176;5.714;2023-04-12T00:58:26;3.40;;;2.60;;
10120;SDS011;5100;45.176;5.714;2023-04-12T01:00:51;3.17;;;2.70;;
10120;SDS011;5100;45.176;5.714;2023-04-12T01:03:19;5.87;;;2.95;;
10120;SDS011;5100;45.176;5.714;2023-04-12T01:06:10;3.78;;;2.78;;
10120;SDS011;5100;45.176;5.714;2023-04-12T01:08:45;4.87;;;2.97;;
10120;SDS011;5100;45.176;5.714;2023-04-12T01:13:54;3.35;;;2.85;;
10120;SDS011;5100;45.176;5.714;2023-04-12T01:16:35;4.12;;;2.53;;
10120;SDS011;5100;45.176;5.714;2023-04-12T01:19:18;4.47;;;2.70;;
10120;SDS011;5100;45.176;5.714;2023-04-12T01:21:53;7.15;;;3.17;;
10120;SDS011;5100;45.176;5.714;2023-04-12T01:27:21;3.08;;;2.78;;
10120;SDS011;5100;45.176;5.714;2023-04-12T01:29:54;4.20;;;2.70;;
10120;SDS011;5100;45.176;5.714;2023-04-12T01:32:23;7.32;;;2.95;;
10120;SDS011;5100;45.176;5.714;2023-04-12T01:34:50;5.30;;;3.08;;
10120;SDS011;5100;45.176;5.714;2023-04-12T01:37:18;4.05;;;3.10;;
10120;SDS011;5100;45.176;5.714;2023-04-12T01:39:45;3.47;;;2.80;;
10120;SDS011;5100;45.176;5.714;2023-04-12T01:42:17;3.58;;;3.00;;
10120;SDS011;5100;45.176;5.714;2023-04-12T01:44:45;5.43;;;3.00;;
10120;SDS011;5100;45.176;5.714;2023-04-12T01:47:11;8.00;;;3.45;;
10120;SDS011;5100;45.176;5.714;2023-04-12T01:52:35;3.15;;;2.75;;
10120;SDS011;5100;45.176;5.714;2023-04-12T01:55:05;3.85;;;3.20;;
10120;SDS011;5100;45.176;5.714;2023-04-12T01:57:32;3.97;;;3.00;;
10120;SDS011;5100;45.176;5.714;2023-04-12T01:59:59;5.55;;;2.90;;
10120;SDS011;5100;45.176;5.714;2023-04-12T02:02:39;3.87;;;2.95;;
10120;SDS011;5100;45.176;5.714;2023-04-12T02:05:06;5.85;;;3.10;;
10120;SDS011;5100;45.176;5.714;2023-04-12T02:07:34;5.07;;;3.12;;
10120;SDS011;5100;45.176;5.714;2023-04-12T02:10:02;3.80;;;2.60;;
10120;SDS011;5100;45.176;5.714;2023-04-12T02:12:28;3.83;;;2.83;;
10120;SDS011;5100;45.176;5.714;2023-04-12T02:14:54;4.18;;;2.60;;
10120;SDS011;5100;45.176;5.714;2023-04-12T02:17:21;4.97;;;2.90;;
10120;SDS011;5100;45.176;5.714;2023-04-12T02:19:48;5.45;;;2.80;;
10120;SDS011;5100;45.176;5.714;2023-04-12T02:22:14;3.72;;;2.55;;
10120;SDS011;5100;45.176;5.714;2023-04-12T02:24:41;6.68;;;2.53;;
10120;SDS011;5100;45.176;5.714;2023-04-12T02:27:08;4.80;;;3.10;;
10120;SDS011;5100;45.176;5.714;2023-04-12T02:29:36;4.62;;;2.60;;
10120;SDS011;5100;45.176;5.714;2023-04-12T02:32:02;3.83;;;2.65;;
10120;SDS011;5100;45.176;5.714;2023-04-12T02:34:29;3.20;;;2.58;;
10120;SDS011;5100;45.176;5.714;2023-04-12T02:36:59;4.40;;;2.72;;
10120;SDS011;5100;45.176;5.714;2023-04-12T02:39:25;3.53;;;2.50;;
10120;SDS011;5100;45.176;5.714;2023-04-12T02:41:54;5.05;;;2.92;;
10120;SDS011;5100;45.176;5.714;2023-04-12T02:44:21;5.07;;;2.83;;
10120;SDS011;5100;45.176;5.714;2023-04-12T02:46:47;3.47;;;2.78;;
10120;SDS011;5100;45.176;5.714;2023-04-12T02:49:14;4.25;;;3.00;;
10120;SDS011;5100;45.176;5.714;2023-04-12T02:51:40;6.07;;;3.12;;
10120;SDS011;5100;45.176;5.714;2023-04-12T02:54:06;4.85;;;2.90;;
10120;SDS011;5100;45.176;5.714;2023-04-12T02:56:34;3.58;;;2.67;;
10120;SDS011;5100;45.176;5.714;2023-04-12T02:59:02;4.80;;;3.10;;
10120;SDS011;5100;45.176;5.714;2023-04-12T03:01:28;4.28;;;2.78;;
10120;SDS011;5100;45.176;5.714;2023-04-12T03:03:56;4.35;;;2.92;;
10120;SDS011;5100;45.176;5.714;2023-04-12T03:06:24;2.58;;;2.37;;
10120;SDS011;5100;45.176;5.714;2023-04-12T03:08:49;2.90;;;2.53;;
10120;SDS011;5100;45.176;5.714;2023-04-12T03:11:16;4.87;;;2.92;;
10120;SDS011;5100;45.176;5.714;2023-04-12T03:13:43;5.75;;;3.10;;
10120;SDS011;5100;45.176;5.714;2023-04-12T03:16:23;4.05;;;3.05;;
10120;SDS011;5100;45.176;5.714;2023-04-12T03:18:55;6.15;;;3.00;;
10120;SDS011;5100;45.176;5.714;2023-04-12T03:21:23;2.87;;;2.62;;
10120;SDS011;5100;45.176;5.714;2023-04-12T03:23:52;3.60;;;2.80;;
10120;SDS011;5100;45.176;5.714;2023-04-12T03:26:18;3.20;;;2.60;;
10120;SDS011;5100;45.176;5.714;2023-04-12T03:28:46;4.82;;;2.65;;
10120;SDS011;5100;45.176;5.714;2023-04-12T03:31:12;3.45;;;2.75;;
10120;SDS011;5100;45.176;5.714;2023-04-12T03:33:38;3.95;;;2.50;;
10120;SDS011;5100;45.176;5.714;2023-04-12T03:36:06;3.25;;;2.80;;
10120;SDS011;5100;45.176;5.714;2023-04-12T03:38:33;3.97;;;2.80;;
10120;SDS011;5100;45.176;5.714;2023-04-12T03:41:01;3.75;;;2.80;;
10120;SDS011;5100;45.176;5.714;2023-04-12T03:43:27;4.10;;;2.50;;
10120;SDS011;5100;45.176;5.714;2023-04-12T03:46:04;3.62;;;2.55;;
10120;SDS011;5100;45.176;5.714;2023-04-12T03:48:31;4.97;;;2.80;;
10120;SDS011;5100;45.176;5.714;2023-04-12T03:50:57;3.78;;;2.30;;
10120;SDS011;5100;45.176;5.714;2023-04-12T03:53:25;5.12;;;2.40;;
10120;SDS011;5100;45.176;5.714;2023-04-12T03:55:52;3.85;;;2.78;;
10120;SDS011;5100;45.176;5.714;2023-04-12T03:58:19;4.30;;;2.62;;
10120;SDS011;5100;45.176;5.714;2023-04-12T04:00:46;3.90;;;2.72;;
10120;SDS011;5100;45.176;5.714;2023-04-12T04:03:14;5.40;;;2.58;;
10120;SDS011;5100;45.176;5.714;2023-04-12T04:05:41;4.40;;;2.80;;
10120;SDS011;5100;45.176;5.714;2023-04-12T04:08:07;6.25;;;2.70;;
10120;SDS011;5100;45.176;5.714;2023-04-12T04:10:35;6.60;;;2.83;;
10120;SDS011;5100;45.176;5.714;2023-04-12T04:13:01;4.20;;;2.50;;
10120;SDS011;5100;45.176;5.714;2023-04-12T04:15:27;3.05;;;2.72;;
10120;SDS011;5100;45.176;5.714;2023-04-12T04:17:54;4.62;;;2.67;;
10120;SDS011;5100;45.176;5.714;2023-04-12T04:20:20;4.25;;;2.70;;
10120;SDS011;5100;45.176;5.714;2023-04-12T04:22:46;4.78;;;3.08;;
10120;SDS011;5100;45.176;5.714;2023-04-12T04:25:14;4.20;;;2.80;;
10120;SDS011;5100;45.176;5.714;2023-04-12T04:27:41;3.92;;;2.67;;
10120;SDS011;5100;45.176;5.714;2023-04-12T04:30:10;6.55;;;2.65;;
10120;SDS011;5100;45.176;5.714;2023-04-12T04:32:39;4.50;;;2.62;;
10120;SDS011;5100;45.176;5.714;2023-04-12T04:35:06;2.45;;;2.17;;
10120;SDS011;5100;45.176;5.714;2023-04-12T04:37:33;3.33;;;2.20;;
10120;SDS011;5100;45.176;5.714;2023-04-12T04:40:00;2.67;;;2.10;;
10120;SDS011;5100;45.176;5.714;2023-04-12T04:42:35;2.97;;;2.35;;
10120;SDS011;5100;45.176;5.714;2023-04-12T04:45:04;2.50;;;2.30;;
10120;SDS011;5100;45.176;5.714;2023-04-12T04:47:38;5.85;;;2.50;;
10120;SDS011;5100;45.176;5.714;2023-04-12T04:50:05;3.45;;;2.42;;
10120;SDS011;5100;45.176;5.714;2023-04-12T04:52:31;4.10;;;2.40;;
10120;SDS011;5100;45.176;5.714;2023-04-12T04:54:58;3.90;;;2.37;;
10120;SDS011;5100;45.176;5.714;2023-04-12T04:57:25;3.47;;;2.28;;
10120;SDS011;5100;45.176;5.714;2023-04-12T04:59:53;4.37;;;2.27;;
10120;SDS011;5100;45.176;5.714;2023-04-12T05:02:19;3.50;;;2.27;;
10120;SDS011;5100;45.176;5.714;2023-04-12T05:04:46;3.30;;;2.40;;
10120;SDS011;5100;45.176;5.714;2023-04-12T05:07:12;6.62;;;2.30;;
10120;SDS011;5100;45.176;5.714;2023-04-12T05:09:41;4.32;;;3.03;;
10120;SDS011;5100;45.176;5.714;2023-04-12T05:12:08;4.75;;;2.78;;
10120;SDS011;5100;45.176;5.714;2023-04-12T05:14:34;3.37;;;2.55;;
10120;SDS011;5100;45.176;5.714;2023-04-12T05:17:03;3.25;;;2.55;;
10120;SDS011;5100;45.176;5.714;2023-04-12T05:19:29;4.03;;;2.87;;
10120;SDS011;5100;45.176;5.714;2023-04-12T05:21:56;3.90;;;2.50;;
10120;SDS011;5100;45.176;5.714;2023-04-12T05:24:22;4.72;;;3.00;;
10120;SDS011;5100;45.176;5.714;2023-04-12T05:26:49;3.25;;;2.62;;
10120;SDS011;5100;45.176;5.714;2023-04-12T05:29:16;5.12;;;2.60;;
10120;SDS011;5100;45.176;5.714;2023-04-12T05:31:42;4.37;;;2.70;;
10120;SDS011;5100;45.176;5.714;2023-04-12T05:34:09;7.70;;;3.15;;
10120;SDS011;5100;45.176;5.714;2023-04-12T05:36:36;3.83;;;3.30;;
10120;SDS011;5100;45.176;5.714;2023-04-12T05:39:02;3.37;;;2.70;;
10120;SDS011;5100;45.176;5.714;2023-04-12T05:41:29;4.57;;;2.50;;
10120;SDS011;5100;45.176;5.714;2023-04-12T05:43:56;5.35;;;2.70;;
10120;SDS011;5100;45.176;5.714;2023-04-12T05:46:23;3.28;;;2.53;;
10120;SDS011;5100;45.176;5.714;2023-04-12T05:48:50;5.47;;;2.80;;
10120;SDS011;5100;45.176;5.714;2023-04-12T05:51:16;4.80;;;2.70;;
10120;SDS011;5100;45.176;5.714;2023-04-12T05:53:42;3.53;;;2.70;;
10120;SDS011;5100;45.176;5.714;2023-04-12T05:56:10;4.53;;;2.87;;
10120;SDS011;5100;45.176;5.714;2023-04-12T05:58:36;3.28;;;2.45;;
10120;SDS011;5100;45.176;5.714;2023-04-12T06:01:03;4.87;;;2.50;;
10120;SDS011;5100;45.176;5.714;2023-04-12T06:03:30;5.90;;;2.70;;
10120;SDS011;5100;45.176;5.714;2023-04-12T06:05:57;4.90;;;2.90;;
10120;SDS011;5100;45.176;5.714;2023-04-12T06:08:23;3.25;;;2.70;;
10120;SDS011;5100;45.176;5.714;2023-04-12T06:10:50;2.90;;;2.47;;
10120;SDS011;5100;45.176;5.714;2023-04-12T06:13:16;6.20;;;3.10;;
10120;SDS011;5100;45.176;5.714;2023-04-12T06:15:42;5.15;;;2.72;;
10120;SDS011;5100;45.176;5.714;2023-04-12T06:18:09;3.30;;;2.70;;
10120;SDS011;5100;45.176;5.714;2023-04-12T06:20:37;4.78;;;3.10;;
10120;SDS011;5100;45.176;5.714;2023-04-12T06:23:04;5.60;;;3.08;;
10120;SDS011;5100;45.176;5.714;2023-04-12T06:25:32;5.57;;;3.20;;
10120;SDS011;5100;45.176;5.714;2023-04-12T06:27:59;10.35;;;3.53;;
10120;SDS011;5100;45.176;5.714;2023-04-12T06:30:25;6.25;;;3.37;;
10120;SDS011;5100;45.176;5.714;2023-04-12T06:32:51;9.65;;;3.50;;
10120;SDS011;5100;45.176;5.714;2023-04-12T06:35:17;8.13;;;3.30;;
10120;SDS011;5100;45.176;5.714;2023-04-12T06:37:45;9.27;;;3.20;;
10120;SDS011;5100;45.176;5.714;2023-04-12T06:40:11;5.43;;;3.03;;
10120;SDS011;5100;45.176;5.714;2023-04-12T06:42:37;5.28;;;3.00;;
10120;SDS011;5100;45.176;5.714;2023-04-12T06:45:04;7.43;;;3.08;;
10120;SDS011;5100;45.176;5.714;2023-04-12T06:47:31;7.00;;;2.80;;
10120;SDS011;5100;45.176;5.714;2023-04-12T06:49:57;3.92;;;2.72;;
10120;SDS011;5100;45.176;5.714;2023-04-12T06:52:23;6.20;;;3.00;;
10120;SDS011;5100;45.176;5.714;2023-04-12T06:54:53;4.32;;;3.10;;
10120;SDS011;5100;45.176;5.714;2023-04-12T06:57:20;4.22;;;2.90;;
10120;SDS011;5100;45.176;5.714;2023-04-12T06:59:47;2.90;;;2.62;;
10120;SDS011;5100;45.176;5.714;2023-04-12T07:02:13;5.05;;;3.12;;
10120;SDS011;5100;45.176;5.714;2023-04-12T07:04:40;3.70;;;2.70;;
10120;SDS011;5100;45.176;5.714;2023-04-12T07:07:06;5.12;;;2.85;;
10120;SDS011;5100;45.176;5.714;2023-04-12T07:09:32;5.25;;;3.15;;
10120;SDS011;5100;45.176;5.714;2023-04-12T07:11:59;3.67;;;3.00;;
10120;SDS011;5100;45.176;5.714;2023-04-12T07:14:26;4.43;;;3.35;;
10120;SDS011;5100;45.176;5.714;2023-04-12T07:16:53;4.70;;;2.53;;
10120;SDS011;5100;45.176;5.714;2023-04-12T07:19:19;5.78;;;3.53;;
10120;SDS011;5100;45.176;5.714;2023-04-12T07:21:45;5.57;;;3.75;;
10120;SDS011;5100;45.176;5.714;2023-04-12T07:24:12;7.75;;;3.15;;
10120;SDS011;5100;45.176;5.714;2023-04-12T07:26:38;4.25;;;3.40;;
10120;SDS011;5100;45.176;5.714;2023-04-12T07:29:04;3.35;;;2.72;;
10120;SDS011;5100;45.176;5.714;2023-04-12T07:31:30;6.65;;;3.40;;
10120;SDS011;5100;45.176;5.714;2023-04-12T07:33:56;3.45;;;2.90;;
10120;SDS011;5100;45.176;5.714;2023-04-12T07:36:22;6.22;;;3.20;;
10120;SDS011;5100;45.176;5.714;2023-04-12T07:38:49;6.57;;;3.15;;
10120;SDS011;5100;45.176;5.714;2023-04-12T07:41:19;7.65;;;4.32;;
10120;SDS011;5100;45.176;5.714;2023-04-12T07:43:46;6.25;;;3.22;;
10120;SDS011;5100;45.176;5.714;2023-04-12T07:46:13;8.70;;;3.80;;
10120;SDS011;5100;45.176;5.714;2023-04-12T07:48:39;6.37;;;3.28;;
10120;SDS011;5100;45.176;5.714;2023-04-12T07:51:07;8.38;;;3.30;;
10120;SDS011;5100;45.176;5.714;2023-04-12T07:53:34;12.43;;;3.80;;
10120;SDS011;5100;45.176;5.714;2023-04-12T07:56:00;7.62;;;3.83;;
10120;SDS011;5100;45.176;5.714;2023-04-12T07:58:29;4.95;;;2.97;;
10120;SDS011;5100;45.176;5.714;2023-04-12T08:00:56;5.22;;;3.30;;
10120;SDS011;5100;45.176;5.714;2023-04-12T08:03:22;9.50;;;3.50;;
10120;SDS011;5100;45.176;5.714;2023-04-12T08:05:48;9.55;;;3.30;;
10120;SDS011;5100;45.176;5.714;2023-04-12T08:08:18;4.40;;;3.00;;
10120;SDS011;5100;45.176;5.714;2023-04-12T08:10:48;8.77;;;3.42;;
10120;SDS011;5100;45.176;5.714;2023-04-12T08:13:15;6.18;;;2.92;;
10120;SDS011;5100;45.176;5.714;2023-04-12T08:15:41;9.20;;;3.10;;
10120;SDS011;5100;45.176;5.714;2023-04-12T08:18:12;9.70;;;3.22;;
10120;SDS011;5100;45.176;5.714;2023-04-12T08:20:38;7.95;;;3.15;;
10120;SDS011;5100;45.176;5.714;2023-04-12T08:23:11;10.43;;;2.97;;
10120;SDS011;5100;45.176;5.714;2023-04-12T08:25:38;7.80;;;3.50;;
10120;SDS011;5100;45.176;5.714;2023-04-12T08:28:04;6.32;;;3.10;;
10120;SDS011;5100;45.176;5.714;2023-04-12T08:30:33;5.90;;;2.97;;
10120;SDS011;5100;45.176;5.714;2023-04-12T08:32:59;6.05;;;3.10;;
10120;SDS011;5100;45.176;5.714;2023-04-12T08:35:25;7.87;;;3.22;;
10120;SDS011;5100;45.176;5.714;2023-04-12T08:37:51;7.57;;;3.17;;
10120;SDS011;5100;45.176;5.714;2023-04-12T08:40:18;3.08;;;2.60;;
10120;SDS011;5100;45.176;5.714;2023-04-12T08:42:46;5.35;;;2.67;;
10120;SDS011;5100;45.176;5.714;2023-04-12T08:45:12;6.28;;;3.25;;
10120;SDS011;5100;45.176;5.714;2023-04-12T08:47:41;9.07;;;3.35;;
10120;SDS011;5100;45.176;5.714;2023-04-12T08:50:09;6.62;;;3.10;;
10120;SDS011;5100;45.176;5.714;2023-04-12T08:52:38;4.97;;;3.42;;
10120;SDS011;5100;45.176;5.714;2023-04-12T08:55:06;14.98;;;3.95;;
10120;SDS011;5100;45.176;5.714;2023-04-12T08:57:33;9.55;;;3.72;;
10120;SDS011;5100;45.176;5.714;2023-04-12T09:00:01;7.70;;;3.17;;
10120;SDS011;5100;45.176;5.714;2023-04-12T09:02:28;6.93;;;3.00;;
10120;SDS011;5100;45.176;5.714;2023-04-12T09:04:56;6.80;;;2.90;;
10120;SDS011;5100;45.176;5.714;2023-04-12T09:07:22;5.32;;;3.05;;
10120;SDS011;5100;45.176;5.714;2023-04-12T09:09:55;7.70;;;3.03;;
10120;SDS011;5100;45.176;5.714;2023-04-12T09:12:22;5.80;;;3.05;;
10120;SDS011;5100;45.176;5.714;2023-04-12T09:15:07;4.55;;;2.85;;
10120;SDS011;5100;45.176;5.714;2023-04-12T09:17:37;5.80;;;2.90;;
10120;SDS011;5100;45.176;5.714;2023-04-12T09:22:57;4.60;;;2.92;;
10120;SDS011;5100;45.176;5.714;2023-04-12T09:25:39;4.30;;;2.75;;
10120;SDS011;5100;45.176;5.714;2023-04-12T09:28:23;3.35;;;2.30;;
10120;SDS011;5100;45.176;5.714;2023-04-12T09:30:50;4.97;;;2.97;;
10120;SDS011;5100;45.176;5.714;2023-04-12T09:33:37;4.50;;;2.60;;
10120;SDS011;5100;45.176;5.714;2023-04-12T09:36:04;3.37;;;2.42;;
10120;SDS011;5100;45.176;5.714;2023-04-12T09:38:34;3.40;;;1.90;;
10120;SDS011;5100;45.176;5.714;2023-04-12T09:41:19;8.10;;;2.65;;
10120;SDS011;5100;45.176;5.714;2023-04-12T09:43:52;2.03;;;1.80;;
10120;SDS011;5100;45.176;5.714;2023-04-12T09:46:18;4.50;;;2.03;;
10120;SDS011;5100;45.176;5.714;2023-04-12T09:48:50;7.85;;;1.90;;
10120;SDS011;5100;45.176;5.714;2023-04-12T09:51:31;4.72;;;2.65;;
10120;SDS011;5100;45.176;5.714;2023-04-12T09:53:59;5.12;;;2.15;;
10120;SDS011;5100;45.176;5.714;2023-04-12T09:56:27;2.97;;;2.08;;
10120;SDS011;5100;45.176;5.714;2023-04-12T09:58:56;6.05;;;2.25;;
10120;SDS011;5100;45.176;5.714;2023-04-12T10:01:32;6.12;;;2.45;;
10120;SDS011;5100;45.176;5.714;2023-04-12T10:04:06;4.22;;;2.37;;
10120;SDS011;5100;45.176;5.714;2023-04-12T10:06:33;6.05;;;2.40;;
10120;SDS011;5100;45.176;5.714;2023-04-12T10:09:03;3.53;;;2.33;;
10120;SDS011;5100;45.176;5.714;2023-04-12T10:11:31;5.40;;;2.30;;
10120;SDS011;5100;45.176;5.714;2023-04-12T10:13:58;3.62;;;2.30;;
10120;SDS011;5100;45.176;5.714;2023-04-12T10:16:26;6.72;;;2.50;;
10120;SDS011;5100;45.176;5.714;2023-04-12T10:18:54;3.53;;;2.20;;
10120;SDS011;5100;45.176;5.714;2023-04-12T10:21:23;4.07;;;2.50;;
10120;SDS011;5100;45.176;5.714;2023-04-12T10:23:50;5.62;;;2.20;;
10120;SDS011;5100;45.176;5.714;2023-04-12T10:26:17;3.92;;;2.17;;
10120;SDS011;5100;45.176;5.714;2023-04-12T10:28:43;4.43;;;2.12;;
10120;SDS011;5100;45.176;5.714;2023-04-12T10:31:28;4.60;;;2.17;;
10120;SDS011;5100;45.176;5.714;2023-04-12T10:33:55;3.03;;;2.40;;
10120;SDS011;5100;45.176;5.714;2023-04-12T10:39:16;7.25;;;3.28;;
10120;SDS011;5100;45.176;5.714;2023-04-12T10:44:55;4.55;;;2.10;;
10120;SDS011;5100;45.176;5.714;2023-04-12T10:50:20;5.25;;;2.15;;
10120;SDS011;5100;45.176;5.714;2023-04-12T10:53:19;4.93;;;2.00;;
10120;SDS011;5100;45.176;5.714;2023-04-12T10:55:46;3.22;;;2.08;;
10120;SDS011;5100;45.176;5.714;2023-04-12T11:01:15;3.53;;;2.40;;
10120;SDS011;5100;45.176;5.714;2023-04-12T11:14:35;2.35;;;2.12;;
10120;SDS011;5100;45.176;5.714;2023-04-12T11:19:38;4.47;;;1.98;;
10120;SDS011;5100;45.176;5.714;2023-04-12T11:22:07;3.95;;;1.90;;
10120;SDS011;5100;45.176;5.714;2023-04-12T11:24:38;3.22;;;2.08;;
10120;SDS011;5100;45.176;5.714;2023-04-12T11:27:05;2.62;;;2.00;;
10120;SDS011;5100;45.176;5.714;2023-04-12T11:29:33;2.08;;;1.83;;
10120;SDS011;5100;45.176;5.714;2023-04-12T11:32:01;2.67;;;1.98;;
10120;SDS011;5100;45.176;5.714;2023-04-12T11:34:35;2.58;;;1.90;;
10120;SDS011;5100;45.176;5.714;2023-04-12T11:37:02;5.68;;;2.05;;
10120;SDS011;5100;45.176;5.714;2023-04-12T11:39:32;2.58;;;1.73;;
10120;SDS011;5100;45.176;5.714;2023-04-12T11:42:00;2.78;;;1.98;;
10120;SDS011;5100;45.176;5.714;2023-04-12T11:44:31;5.75;;;2.03;;
10120;SDS011;5100;45.176;5.714;2023-04-12T11:46:57;2.42;;;1.87;;
10120;SDS011;5100;45.176;5.714;2023-04-12T11:49:25;3.58;;;1.55;;
10120;SDS011;5100;45.176;5.714;2023-04-12T11:52:01;4.87;;;2.05;;
10120;SDS011;5100;45.176;5.714;2023-04-12T11:54:29;2.58;;;1.87;;
10120;SDS011;5100;45.176;5.714;2023-04-12T11:56:56;5.00;;;1.55;;
10120;SDS011;5100;45.176;5.714;2023-04-12T11:59:32;3.12;;;1.90;;
10120;SDS011;5100;45.176;5.714;2023-04-12T12:01:59;5.68;;;1.60;;
10120;SDS011;5100;45.176;5.714;2023-04-12T12:04:27;2.20;;;1.62;;
10120;SDS011;5100;45.176;5.714;2023-04-12T12:06:55;4.32;;;1.90;;
10120;SDS011;5100;45.176;5.714;2023-04-12T12:09:23;4.43;;;1.50;;
10120;SDS011;5100;45.176;5.714;2023-04-12T12:11:50;3.30;;;2.00;;
10120;SDS011;5100;45.176;5.714;2023-04-12T12:14:18;2.97;;;2.12;;
10120;SDS011;5100;45.176;5.714;2023-04-12T12:16:56;5.78;;;2.42;;
10120;SDS011;5100;45.176;5.714;2023-04-12T12:19:27;3.53;;;2.00;;
10120;SDS011;5100;45.176;5.714;2023-04-12T12:22:10;7.32;;;2.28;;
10120;SDS011;5100;45.176;5.714;2023-04-12T12:24:44;3.22;;;2.00;;
10120;SDS011;5100;45.176;5.714;2023-04-12T12:27:10;4.37;;;2.10;;
10120;SDS011;5100;45.176;5.714;2023-04-12T12:29:37;2.55;;;1.80;;
10120;SDS011;5100;45.176;5.714;2023-04-12T12:32:10;4.50;;;2.00;;
10120;SDS011;5100;45.176;5.714;2023-04-12T12:34:39;3.20;;;2.03;;
10120;SDS011;5100;45.176;5.714;2023-04-12T12:37:06;3.92;;;1.95;;
10120;SDS011;5100;45.176;5.714;2023-04-12T12:39:33;4.85;;;1.60;;
10120;SDS011;5100;45.176;5.714;2023-04-12T12:42:01;2.53;;;1.77;;
10120;SDS011;5100;45.176;5.714;2023-04-12T12:44:29;2.55;;;1.45;;
10120;SDS011;5100;45.176;5.714;2023-04-12T12:46:57;2.55;;;1.45;;
10120;SDS011;5100;45.176;5.714;2023-04-12T12:49:25;3.47;;;1.45;;
10120;SDS011;5100;45.176;5.714;2023-04-12T12:51:51;4.47;;;1.65;;
10120;SDS011;5100;45.176;5.714;2023-04-12T12:54:18;2.35;;;1.50;;
10120;SDS011;5100;45.176;5.714;2023-04-12T12:56:44;2.35;;;1.60;;
10120;SDS011;5100;45.176;5.714;2023-04-12T12:59:10;2.47;;;1.33;;
10120;SDS011;5100;45.176;5.714;2023-04-12T13:01:36;3.03;;;1.50;;
10120;SDS011;5100;45.176;5.714;2023-04-12T13:04:03;8.10;;;1.70;;
10120;SDS011;5100;45.176;5.714;2023-04-12T13:06:29;2.55;;;1.50;;
10120;SDS011;5100;45.176;5.714;2023-04-12T13:08:56;5.05;;;1.50;;
10120;SDS011;5100;45.176;5.714;2023-04-12T13:11:22;3.50;;;1.45;;
10120;SDS011;5100;45.176;5.714;2023-04-12T13:13:48;3.35;;;1.67;;
10120;SDS011;5100;45.176;5.714;2023-04-12T13:16:14;3.12;;;1.45;;
10120;SDS011;5100;45.176;5.714;2023-04-12T13:18:41;2.47;;;1.40;;
10120;SDS011;5100;45.176;5.714;2023-04-12T13:21:07;4.82;;;1.77;;
10120;SDS011;5100;45.176;5.714;2023-04-12T13:23:33;3.53;;;1.58;;
10120;SDS011;5100;45.176;5.714;2023-04-12T13:26:00;3.35;;;1.40;;
10120;SDS011;5100;45.176;5.714;2023-04-12T13:28:26;4.85;;;1.77;;
10120;SDS011;5100;45.176;5.714;2023-04-12T13:30:52;1.98;;;1.70;;
10120;SDS011;5100;45.176;5.714;2023-04-12T13:33:18;3.12;;;1.80;;
10120;SDS011;5100;45.176;5.714;2023-04-12T13:35:44;2.60;;;1.45;;
10120;SDS011;5100;45.176;5.714;2023-04-12T13:38:10;4.82;;;1.55;;
10120;SDS011;5100;45.176;5.714;2023-04-12T13:40:37;4.72;;;1.85;;
10120;SDS011;5100;45.176;5.714;2023-04-12T13:43:03;3.62;;;1.30;;
10120;SDS011;5100;45.176;5.714;2023-04-12T13:45:31;1.58;;;1.48;;
10120;SDS011;5100;45.176;5.714;2023-04-12T13:47:58;1.92;;;1.45;;
10120;SDS011;5100;45.176;5.714;2023-04-12T13:50:24;3.45;;;1.50;;
10120;SDS011;5100;45.176;5.714;2023-04-12T13:52:50;3.03;;;1.62;;
10120;SDS011;5100;45.176;5.714;2023-04-12T13:55:16;2.05;;;1.50;;
10120;SDS011;5100;45.176;5.714;2023-04-12T13:57:42;2.80;;;1.60;;
10120;SDS011;5100;45.176;5.714;2023-04-12T14:00:08;2.17;;;1.45;;
10120;SDS011;5100;45.176;5.714;2023-04-12T14:02:35;2.25;;;1.50;;
10120;SDS011;5100;45.176;5.714;2023-04-12T14:05:01;1.70;;;1.30;;
10120;SDS011;5100;45.176;5.714;2023-04-12T14:07:28;5.55;;;1.90;;
10120;SDS011;5100;45.176;5.714;2023-04-12T14:09:55;2.53;;;1.80;;
10120;SDS011;5100;45.176;5.714;2023-04-12T14:12:22;2.50;;;1.80;;
10120;SDS011;5100;45.176;5.714;2023-04-12T14:14:47;3.75;;;1.80;;
10120;SDS011;5100;45.176;5.714;2023-04-12T14:17:14;2.28;;;1.55;;
10120;SDS011;5100;45.176;5.714;2023-04-12T14:19:40;4.03;;;1.83;;
10120;SDS011;5100;45.176;5.714;2023-04-12T14:22:06;3.83;;;1.75;;
10120;SDS011;5100;45.176;5.714;2023-04-12T14:24:32;1.62;;;1.40;;
10120;SDS011;5100;45.176;5.714;2023-04-12T14:26:58;5.20;;;1.62;;
10120;SDS011;5100;45.176;5.714;2023-04-12T14:29:25;4.25;;;2.28;;
10120;SDS011;5100;45.176;5.714;2023-04-12T14:31:51;2.65;;;1.70;;
10120;SDS011;5100;45.176;5.714;2023-04-12T14:34:17;4.95;;;1.80;;
10120;SDS011;5100;45.176;5.714;2023-04-12T14:36:43;5.55;;;1.77;;
10120;SDS011;5100;45.176;5.714;2023-04-12T14:39:10;3.03;;;1.60;;
10120;SDS011;5100;45.176;5.714;2023-04-12T14:41:36;4.05;;;1.73;;
10120;SDS011;5100;45.176;5.714;2023-04-12T14:44:02;4.65;;;1.75;;
10120;SDS011;5100;45.176;5.714;2023-04-12T14:46:30;4.00;;;2.00;;
10120;SDS011;5100;45.176;5.714;2023-04-12T14:48:59;2.28;;;1.92;;
10120;SDS011;5100;45.176;5.714;2023-04-12T14:51:27;6.40;;;1.60;;
10120;SDS011;5100;45.176;5.714;2023-04-12T14:53:54;7.55;;;2.00;;
10120;SDS011;5100;45.176;5.714;2023-04-12T14:56:24;7.57;;;2.00;;
10120;SDS011;5100;45.176;5.714;2023-04-12T14:58:53;4.30;;;2.00;;
10120;SDS011;5100;45.176;5.714;2023-04-12T15:01:21;3.37;;;1.90;;
10120;SDS011;5100;45.176;5.714;2023-04-12T15:03:48;5.05;;;2.10;;
10120;SDS011;5100;45.176;5.714;2023-04-12T15:06:16;4.68;;;2.37;;
10120;SDS011;5100;45.176;5.714;2023-04-12T15:08:43;3.37;;;2.15;;
10120;SDS011;5100;45.176;5.714;2023-04-12T15:11:10;5.37;;;1.83;;
10120;SDS011;5100;45.176;5.714;2023-04-12T15:13:40;5.43;;;2.25;;
10120;SDS011;5100;45.176;5.714;2023-04-12T15:16:22;4.25;;;2.80;;
10120;SDS011;5100;45.176;5.714;2023-04-12T15:18:48;11.18;;;3.15;;
10120;SDS011;5100;45.176;5.714;2023-04-12T15:21:15;4.85;;;3.10;;
10120;SDS011;5100;45.176;5.714;2023-04-12T15:23:41;4.97;;;2.90;;
10120;SDS011;5100;45.176;5.714;2023-04-12T15:26:07;5.80;;;2.60;;
10120;SDS011;5100;45.176;5.714;2023-04-12T15:28:34;3.85;;;2.62;;
10120;SDS011;5100;45.176;5.714;2023-04-12T15:31:00;4.85;;;3.03;;
10120;SDS011;5100;45.176;5.714;2023-04-12T15:33:27;4.15;;;2.80;;
10120;SDS011;5100;45.176;5.714;2023-04-12T15:35:55;4.10;;;2.75;;
10120;SDS011;5100;45.176;5.714;2023-04-12T15:38:28;5.80;;;2.83;;
10120;SDS011;5100;45.176;5.714;2023-04-12T15:41:19;3.30;;;2.47;;
10120;SDS011;5100;45.176;5.714;2023-04-12T15:43:46;5.25;;;3.20;;